Time,TemperatureF,DewpointF,PressureIn,WindDirection,WindDirectionDegrees,WindSpeedMPH,WindSpeedGustMPH,Humidity,HourlyPrecipIn,Conditions,Clouds,dailyrainin,SoftwareType,DateUTC
2013-06-25 00:13:00,80.9,71.0,29.84,SW,230,1.0,6.0,71,0.00,,,0.00,weatherlink.com 1.10,2013-06-25 05:13:00,
2013-06-25 00:28:00,80.4,70.0,29.83,SW,227,1.0,5.0,71,0.00,,,0.00,weatherlink.com 1.10,2013-06-25 05:28:00,
2013-06-25 00:44:00,79.8,70.0,29.83,WSW,237,1.0,5.0,73,0.00,,,0.00,weatherlink.com 1.10,2013-06-25 05:44:00,
2013-06-25 00:59:00,79.2,70.0,29.83,WSW,237,0.0,2.0,74,0.00,,,0.00,weatherlink.com 1.10,2013-06-25 05:59:00,
2013-06-25 01:14:00,78.7,70.0,29.83,WSW,237,1.0,1.0,75,0.00,,,0.00,weatherlink.com 1.10,2013-06-25 06:14:00,
2013-06-25 01:29:00,78.2,70.0,29.83,WSW,237,0.0,2.0,76,0.00,,,0.00,weatherlink.com 1.10,2013-06-25 06:29:00,
2013-06-25 01:44:00,77.7,70.0,29.84,WSW,237,0.0,1.0,77,0.00,,,0.00,weatherlink.com 1.10,2013-06-25 06:44:00,
2013-06-25 01:59:00,77.1,70.0,29.84,WSW,237,0.0,0.0,79,0.00,,,0.00,weatherlink.com 1.10,2013-06-25 06:59:00,
2013-06-25 02:14:00,76.2,70.0,29.84,WSW,237,0.0,1.0,81,0.00,,,0.00,weatherlink.com 1.10,2013-06-25 07:14:00,
2013-06-25 02:29:00,75.5,70.0,29.84,WSW,237,0.0,0.0,83,0.00,,,0.00,weatherlink.com 1.10,2013-06-25 07:29:00,
2013-06-25 02:44:00,75.1,70.0,29.84,WSW,237,0.0,1.0,84,0.00,,,0.00,weatherlink.com 1.10,2013-06-25 07:44:00,
2013-06-25 02:59:00,75.1,70.0,29.83,WSW,237,0.0,1.0,83,0.00,,,0.00,weatherlink.com 1.10,2013-06-25 07:59:00,
2013-06-25 03:14:00,75.0,70.0,29.83,WSW,237,0.0,0.0,83,0.00,,,0.00,weatherlink.com 1.10,2013-06-25 08:14:00,
2013-06-25 03:29:00,74.8,70.0,29.82,WSW,237,0.0,1.0,84,0.00,,,0.00,weatherlink.com 1.10,2013-06-25 08:29:00,
2013-06-25 03:44:00,74.7,70.0,29.81,WSW,237,0.0,2.0,84,0.00,,,0.00,weatherlink.com 1.10,2013-06-25 08:44:00,
2013-06-25 03:59:00,74.6,70.0,29.81,WSW,237,0.0,1.0,85,0.00,,,0.00,weatherlink.com 1.10,2013-06-25 08:59:00,
2013-06-25 04:14:00,74.5,70.0,29.82,WSW,237,0.0,1.0,85,0.00,,,0.00,weatherlink.com 1.10,2013-06-25 09:14:00,
2013-06-25 04:29:00,74.5,70.0,29.80,SW,232,0.0,1.0,85,0.00,,,0.00,weatherlink.com 1.10,2013-06-25 09:29:00,
2013-06-25 04:44:00,74.6,70.0,29.81,SSW,202,0.0,2.0,85,0.00,,,0.00,weatherlink.com 1.10,2013-06-25 09:44:00,
2013-06-25 04:59:00,74.8,70.0,29.80,South,182,0.0,2.0,85,0.00,,,0.00,weatherlink.com 1.10,2013-06-25 09:59:00,
2013-06-25 05:14:00,75.0,70.0,29.81,South,186,1.0,4.0,85,0.00,,,0.00,weatherlink.com 1.10,2013-06-25 10:14:00,
2013-06-25 05:29:00,75.4,70.0,29.81,SW,214,1.0,7.0,84,0.00,,,0.00,weatherlink.com 1.10,2013-06-25 10:29:00,
2013-06-25 05:44:00,75.4,70.0,29.81,South,189,0.0,3.0,84,0.00,,,0.00,weatherlink.com 1.10,2013-06-25 10:44:00,
2013-06-25 05:59:00,75.0,70.0,29.81,WSW,243,3.0,3.0,85,0.00,,,0.00,weatherlink.com 1.10,2013-06-25 10:59:00,
2013-06-25 06:14:00,75.0,70.0,29.82,SW,232,1.0,4.0,85,0.00,,,0.00,weatherlink.com 1.10,2013-06-25 11:14:00,
2013-06-25 06:29:00,75.2,71.0,29.82,SSE,165,0.0,4.0,85,0.00,,,0.00,weatherlink.com 1.10,2013-06-25 11:29:00,
2013-06-25 06:44:00,75.3,71.0,29.83,WSW,249,0.0,4.0,85,0.00,,,0.00,weatherlink.com 1.10,2013-06-25 11:44:00,
2013-06-25 06:59:00,75.4,71.0,29.82,South,188,0.0,2.0,86,0.00,,,0.00,weatherlink.com 1.10,2013-06-25 11:59:00,
2013-06-25 07:14:00,75.7,71.0,29.82,SW,224,2.0,4.0,86,0.00,,,0.00,weatherlink.com 1.10,2013-06-25 12:14:00,
2013-06-25 07:29:00,76.2,71.0,29.82,SW,232,0.0,6.0,85,0.00,,,0.00,weatherlink.com 1.10,2013-06-25 12:29:00,
2013-06-25 07:44:00,76.9,72.0,29.82,SW,233,3.0,6.0,84,0.00,,,0.00,weatherlink.com 1.10,2013-06-25 12:44:00,
2013-06-25 07:59:00,77.5,72.0,29.82,SW,225,1.0,9.0,83,0.00,,,0.00,weatherlink.com 1.10,2013-06-25 12:59:00,
2013-06-25 08:14:00,78.2,72.0,29.82,SW,218,2.0,9.0,82,0.00,,,0.00,weatherlink.com 1.10,2013-06-25 13:14:00,
2013-06-25 08:29:00,78.9,73.0,29.83,SSE,153,3.0,7.0,81,0.00,,,0.00,weatherlink.com 1.10,2013-06-25 13:29:00,
2013-06-25 08:44:00,79.5,73.0,29.83,South,190,1.0,5.0,80,0.00,,,0.00,weatherlink.com 1.10,2013-06-25 13:44:00,
2013-06-25 08:59:00,80.0,73.0,29.84,South,180,2.0,8.0,79,0.00,,,0.00,weatherlink.com 1.10,2013-06-25 13:59:00,
2013-06-25 09:14:00,80.7,73.0,29.83,SW,236,0.0,8.0,78,0.00,,,0.00,weatherlink.com 1.10,2013-06-25 14:14:00,
2013-06-25 09:29:00,81.7,73.0,29.83,South,169,1.0,8.0,76,0.00,,,0.00,weatherlink.com 1.10,2013-06-25 14:29:00,
2013-06-25 09:44:00,82.2,74.0,29.83,SW,234,1.0,10.0,75,0.00,,,0.00,weatherlink.com 1.10,2013-06-25 14:44:00,
2013-06-25 09:59:00,82.7,74.0,29.82,SSE,168,2.0,9.0,74,0.00,,,0.00,weatherlink.com 1.10,2013-06-25 14:59:00,
2013-06-25 10:14:00,83.3,74.0,29.82,SSW,193,3.0,8.0,73,0.00,,,0.00,weatherlink.com 1.10,2013-06-25 15:14:00,
2013-06-25 10:29:00,84.1,74.0,29.82,SW,224,4.0,10.0,71,0.00,,,0.00,weatherlink.com 1.10,2013-06-25 15:29:00,
2013-06-25 10:44:00,84.7,74.0,29.82,SW,229,1.0,9.0,70,0.00,,,0.00,weatherlink.com 1.10,2013-06-25 15:44:00,
2013-06-25 11:00:00,85.3,75.0,29.82,South,185,2.0,8.0,70,0.00,,,0.00,weatherlink.com 1.10,2013-06-25 16:00:00,
2013-06-25 11:15:00,85.8,74.0,29.82,SW,229,3.0,11.0,67,0.00,,,0.00,weatherlink.com 1.10,2013-06-25 16:15:00,
2013-06-25 11:30:00,86.4,74.0,29.82,WSW,244,8.0,10.0,66,0.00,,,0.00,weatherlink.com 1.10,2013-06-25 16:30:00,
2013-06-25 11:45:00,87.4,74.0,29.83,SSE,165,3.0,10.0,65,0.00,,,0.00,weatherlink.com 1.10,2013-06-25 16:45:00,
2013-06-25 12:00:00,88.2,74.0,29.83,SW,221,1.0,9.0,63,0.00,,,0.00,weatherlink.com 1.10,2013-06-25 17:00:00,
2013-06-25 12:15:00,88.8,73.0,29.83,WNW,289,5.0,12.0,60,0.00,,,0.00,weatherlink.com 1.10,2013-06-25 17:15:00,
2013-06-25 12:30:00,89.2,71.0,29.83,WSW,250,3.0,7.0,56,0.00,,,0.00,weatherlink.com 1.10,2013-06-25 17:30:00,
2013-06-25 12:45:00,89.7,71.0,29.83,SW,230,2.0,11.0,55,0.00,,,0.00,weatherlink.com 1.10,2013-06-25 17:45:00,
2013-06-25 13:00:00,90.1,70.0,29.83,SW,230,4.0,12.0,51,0.00,,,0.00,weatherlink.com 1.10,2013-06-25 18:00:00,
2013-06-25 13:15:00,90.3,70.0,29.82,WSW,243,6.0,12.0,51,0.00,,,0.00,weatherlink.com 1.10,2013-06-25 18:15:00,
2013-06-25 13:30:00,90.0,68.0,29.82,SW,215,0.0,11.0,49,0.00,,,0.00,weatherlink.com 1.10,2013-06-25 18:30:00,
2013-06-25 13:45:00,91.1,70.0,29.81,SW,233,1.0,8.0,50,0.00,,,0.00,weatherlink.com 1.10,2013-06-25 18:45:00,
2013-06-25 14:00:00,91.4,68.0,29.81,SW,221,6.0,10.0,47,0.00,,,0.00,weatherlink.com 1.10,2013-06-25 19:00:00,
2013-06-25 14:15:00,90.9,70.0,29.80,WSW,246,3.0,8.0,50,0.00,,,0.00,weatherlink.com 1.10,2013-06-25 19:15:00,
2013-06-25 14:30:00,91.1,70.0,29.79,WSW,243,4.0,9.0,50,0.00,,,0.00,weatherlink.com 1.10,2013-06-25 19:30:00,
2013-06-25 14:45:00,90.6,70.0,29.78,SW,226,1.0,6.0,51,0.00,,,0.00,weatherlink.com 1.10,2013-06-25 19:45:00,
2013-06-25 15:00:00,90.0,70.0,29.76,SW,229,4.0,5.0,52,0.00,,,0.00,weatherlink.com 1.10,2013-06-25 20:00:00,
2013-06-25 15:15:00,89.2,69.0,29.75,SSW,211,1.0,8.0,52,0.00,,,0.00,weatherlink.com 1.10,2013-06-25 20:15:00,
2013-06-25 15:30:00,89.1,71.0,29.75,SW,219,1.0,5.0,55,0.00,,,0.00,weatherlink.com 1.10,2013-06-25 20:30:00,
2013-06-25 15:45:00,89.4,69.0,29.74,SW,219,3.0,7.0,52,0.00,,,0.00,weatherlink.com 1.10,2013-06-25 20:45:00,
2013-06-25 16:00:00,90.5,70.0,29.73,SW,224,4.0,8.0,51,0.00,,,0.00,weatherlink.com 1.10,2013-06-25 21:00:00,
2013-06-25 16:15:00,90.6,71.0,29.72,SW,225,1.0,7.0,52,0.00,,,0.00,weatherlink.com 1.10,2013-06-25 21:15:00,
2013-06-25 16:30:00,90.5,69.0,29.73,South,175,3.0,13.0,49,0.00,,,0.00,weatherlink.com 1.10,2013-06-25 21:30:00,
2013-06-25 16:45:00,90.4,69.0,29.73,SSE,150,0.0,10.0,49,0.00,,,0.00,weatherlink.com 1.10,2013-06-25 21:45:00,
2013-06-25 17:00:00,90.5,69.0,29.73,SW,223,1.0,10.0,50,0.00,,,0.00,weatherlink.com 1.10,2013-06-25 22:00:00,
2013-06-25 17:15:00,90.1,68.0,29.73,SW,222,6.0,13.0,49,0.00,,,0.00,weatherlink.com 1.10,2013-06-25 22:15:00,
2013-06-25 17:30:00,89.9,68.0,29.72,SSE,168,2.0,12.0,48,0.00,,,0.00,weatherlink.com 1.10,2013-06-25 22:30:00,
2013-06-25 17:45:00,89.6,69.0,29.71,WSW,254,2.0,10.0,51,0.00,,,0.00,weatherlink.com 1.10,2013-06-25 22:45:00,
2013-06-25 18:00:00,89.2,68.0,29.70,South,169,2.0,10.0,50,0.00,,,0.00,weatherlink.com 1.10,2013-06-25 23:00:00,
2013-06-25 18:16:00,89.0,69.0,29.70,SW,219,3.0,12.0,51,0.00,,,0.00,weatherlink.com 1.10,2013-06-25 23:16:00,
2013-06-25 18:31:00,88.2,68.0,29.69,South,186,2.0,18.0,52,0.00,,,0.00,weatherlink.com 1.10,2013-06-25 23:31:00,
2013-06-25 18:46:00,87.7,68.0,29.70,SW,227,0.0,11.0,53,0.00,,,0.00,weatherlink.com 1.10,2013-06-25 23:46:00,
2013-06-25 19:01:00,87.3,69.0,29.70,SSW,207,1.0,9.0,54,0.00,,,0.00,weatherlink.com 1.10,2013-06-26 00:01:00,
2013-06-25 19:16:00,86.7,69.0,29.70,SW,225,1.0,8.0,55,0.00,,,0.00,weatherlink.com 1.10,2013-06-26 00:16:00,
2013-06-25 19:31:00,86.1,69.0,29.69,South,175,2.0,11.0,56,0.00,,,0.00,weatherlink.com 1.10,2013-06-26 00:31:00,
2013-06-25 19:46:00,85.5,68.0,29.70,WSW,242,4.0,7.0,57,0.00,,,0.00,weatherlink.com 1.10,2013-06-26 00:46:00,
2013-06-25 20:01:00,85.1,69.0,29.70,SW,220,4.0,9.0,58,0.00,,,0.00,weatherlink.com 1.10,2013-06-26 01:01:00,
2013-06-25 20:16:00,84.8,69.0,29.69,SW,232,3.0,7.0,60,0.00,,,0.00,weatherlink.com 1.10,2013-06-26 01:16:00,
2013-06-25 20:31:00,84.4,69.0,29.70,SW,229,4.0,7.0,61,0.00,,,0.00,weatherlink.com 1.10,2013-06-26 01:31:00,
2013-06-25 20:46:00,84.2,69.0,29.70,SW,227,3.0,9.0,61,0.00,,,0.00,weatherlink.com 1.10,2013-06-26 01:46:00,
2013-06-25 21:01:00,84.0,70.0,29.70,WSW,238,4.0,8.0,62,0.00,,,0.00,weatherlink.com 1.10,2013-06-26 02:01:00,
2013-06-25 21:16:00,83.7,69.0,29.70,South,184,1.0,6.0,62,0.00,,,0.00,weatherlink.com 1.10,2013-06-26 02:16:00,
2013-06-25 21:31:00,83.2,69.0,29.72,SW,228,1.0,7.0,63,0.00,,,0.00,weatherlink.com 1.10,2013-06-26 02:31:00,
2013-06-25 21:46:00,83.0,69.0,29.72,SSW,208,5.0,8.0,63,0.00,,,0.00,weatherlink.com 1.10,2013-06-26 02:46:00,
2013-06-25 22:01:00,82.8,69.0,29.73,SW,227,1.0,9.0,64,0.00,,,0.00,weatherlink.com 1.10,2013-06-26 03:01:00,
2013-06-25 22:16:00,82.5,69.0,29.73,SW,225,2.0,7.0,64,0.00,,,0.00,weatherlink.com 1.10,2013-06-26 03:16:00,
2013-06-25 22:31:00,82.1,69.0,29.73,SW,236,1.0,5.0,65,0.00,,,0.00,weatherlink.com 1.10,2013-06-26 03:31:00,
2013-06-25 22:46:00,81.8,69.0,29.74,SSW,200,0.0,2.0,66,0.00,,,0.00,weatherlink.com 1.10,2013-06-26 03:46:00,
2013-06-25 23:01:00,81.4,69.0,29.74,SW,230,0.0,4.0,67,0.00,,,0.00,weatherlink.com 1.10,2013-06-26 04:01:00,
2013-06-25 23:16:00,81.0,69.0,29.74,SW,225,3.0,4.0,68,0.00,,,0.00,weatherlink.com 1.10,2013-06-26 04:16:00,
2013-06-25 23:31:00,80.8,70.0,29.73,SSW,205,2.0,5.0,69,0.00,,,0.00,weatherlink.com 1.10,2013-06-26 04:31:00,
2013-06-25 23:46:00,80.6,70.0,29.73,SSE,155,1.0,4.0,69,0.00,,,0.00,weatherlink.com 1.10,2013-06-26 04:46:00,